createdAt,value
2019-05-03T00:02:17.578Z,15.07
2019-05-03T00:04:47.819Z,13.07
2019-05-03T00:07:16.460Z,12.33
2019-05-03T00:09:45.157Z,13.80
2019-05-03T00:12:13.851Z,13.03
2019-05-03T00:14:44.134Z,15.40
2019-05-03T00:17:12.819Z,12.63
2019-05-03T00:19:42.232Z,13.57
2019-05-03T00:22:12.391Z,10.43
2019-05-03T00:24:42.655Z,13.83
2019-05-03T00:27:12.570Z,11.93
2019-05-03T00:29:41.755Z,13.93
2019-05-03T00:32:12.417Z,13.70
2019-05-03T00:34:42.699Z,15.07
2019-05-03T00:37:22.154Z,12.10
2019-05-03T00:40:07.699Z,12.77
2019-05-03T00:42:36.300Z,12.20
2019-05-03T00:45:07.486Z,10.50
2019-05-03T00:47:36.242Z,11.17
2019-05-03T00:50:06.206Z,11.17
2019-05-03T00:52:34.887Z,12.10
2019-05-03T00:55:15.713Z,12.87
2019-05-03T00:57:34.376Z,12.17
2019-05-03T01:00:03.570Z,13.77
2019-05-03T01:02:32.178Z,13.00
2019-05-03T01:05:02.826Z,13.90
2019-05-03T01:07:31.948Z,11.70
2019-05-03T01:10:02.606Z,15.10
2019-05-03T01:12:32.405Z,14.83
2019-05-03T01:15:03.020Z,12.90
2019-05-03T01:17:32.514Z,12.47
2019-05-03T01:20:02.802Z,14.07
2019-05-03T01:22:32.185Z,12.00
2019-05-03T01:25:02.928Z,15.50
2019-05-03T01:27:32.692Z,13.83
2019-05-03T01:30:02.903Z,13.63
2019-05-03T01:32:32.908Z,15.13
2019-05-03T01:35:03.142Z,12.13
2019-05-03T01:37:32.166Z,13.67
2019-05-03T01:40:02.226Z,15.97
2019-05-03T01:42:32.205Z,11.63
2019-05-03T01:45:01.845Z,13.93
2019-05-03T01:47:32.607Z,14.77
2019-05-03T01:50:19.598Z,10.57
2019-05-03T01:52:52.658Z,13.63
2019-05-03T01:55:22.996Z,14.93
2019-05-03T01:57:52.461Z,14.33
2019-05-03T02:00:25.620Z,13.37
2019-05-03T02:02:55.986Z,10.87
2019-05-03T02:05:44.777Z,12.53
2019-05-03T02:08:14.479Z,13.00
2019-05-03T02:10:43.759Z,14.10
2019-05-03T02:13:12.561Z,13.27
2019-05-03T02:15:42.176Z,12.77
2019-05-03T02:18:14.932Z,15.33
2019-05-03T02:20:41.880Z,13.13
2019-05-03T02:23:11.875Z,11.67
2019-05-03T02:25:41.933Z,15.23
2019-05-03T02:28:12.499Z,12.27
2019-05-03T02:30:44.013Z,10.73
2019-05-03T02:33:13.409Z,13.20
2019-05-03T02:35:43.052Z,12.77
2019-05-03T02:38:13.205Z,13.73
2019-05-03T02:40:42.879Z,11.10
2019-05-03T02:43:31.679Z,13.63
2019-05-03T02:46:05.841Z,12.93
2019-05-03T02:48:36.565Z,10.87
2019-05-03T02:51:06.592Z,9.43
2019-05-03T02:53:36.026Z,10.30
2019-05-03T02:56:15.170Z,11.87
2019-05-03T02:58:35.851Z,12.73
2019-05-03T03:01:06.815Z,11.00
2019-05-03T03:03:36.541Z,10.80
2019-05-03T03:06:06.861Z,8.87
2019-05-03T03:08:37.754Z,11.00
2019-05-03T03:11:08.196Z,9.73
2019-05-03T03:13:38.626Z,9.53
2019-05-03T03:16:09.715Z,10.20
2019-05-03T03:18:40.476Z,12.10
2019-05-03T03:21:16.348Z,10.00
2019-05-03T03:24:06.410Z,10.53
2019-05-03T03:26:42.732Z,9.77
2019-05-03T03:29:10.854Z,10.73
2019-05-03T03:31:48.805Z,9.57
2019-05-03T03:34:19.706Z,8.93
2019-05-03T03:37:00.807Z,9.13
2019-05-03T03:39:25.865Z,9.53
2019-05-03T03:41:55.811Z,13.33
2019-05-03T03:44:25.586Z,10.03
2019-05-03T03:46:56.113Z,9.07
2019-05-03T03:49:28.015Z,9.27
2019-05-03T03:51:59.688Z,10.23
2019-05-03T03:54:31.294Z,7.43
2019-05-03T03:57:05.023Z,12.67
2019-05-03T03:59:30.257Z,7.97
2019-05-03T04:01:59.445Z,10.03
2019-05-03T04:04:28.719Z,8.73
2019-05-03T04:07:01.227Z,9.03
2019-05-03T04:09:28.001Z,13.37
2019-05-03T04:11:57.029Z,11.50
2019-05-03T04:14:27.465Z,9.60
2019-05-03T04:17:07.072Z,8.00
2019-05-03T04:19:37.406Z,8.10
2019-05-03T04:22:06.200Z,11.20
2019-05-03T04:24:35.331Z,10.30
2019-05-03T04:27:18.019Z,8.47
2019-05-03T04:29:38.366Z,11.10
2019-05-03T04:32:09.008Z,8.63
2019-05-03T04:34:37.815Z,10.83
2019-05-03T04:37:06.444Z,8.87
2019-05-03T04:39:35.888Z,10.30
2019-05-03T04:42:06.690Z,11.63
2019-05-03T04:44:36.155Z,10.07
2019-05-03T04:47:06.916Z,9.70
2019-05-03T04:49:36.240Z,16.10
2019-05-03T04:52:05.943Z,11.73
2019-05-03T04:54:39.206Z,10.87
2019-05-03T04:57:07.796Z,8.47
2019-05-03T04:59:36.437Z,9.67
2019-05-03T05:02:06.070Z,11.23
2019-05-03T05:04:35.723Z,10.93
2019-05-03T05:07:09.709Z,12.03
2019-05-03T05:09:38.018Z,9.33
2019-05-03T05:12:06.640Z,12.13
2019-05-03T05:14:35.528Z,9.47
2019-05-03T05:17:06.147Z,9.63
2019-05-03T05:19:36.652Z,9.77
2019-05-03T05:22:06.960Z,9.50
2019-05-03T05:24:35.657Z,10.17
2019-05-03T05:27:08.633Z,9.07
2019-05-03T05:29:38.910Z,17.70
2019-05-03T05:32:07.593Z,10.27
2019-05-03T05:34:36.232Z,9.73
2019-05-03T05:37:05.409Z,9.83
2019-05-03T05:39:35.586Z,9.67
2019-05-03T05:42:04.585Z,13.03
2019-05-03T05:44:35.079Z,9.70
2019-05-03T05:47:20.471Z,11.47
2019-05-03T05:50:02.419Z,9.17
2019-05-03T05:52:31.036Z,9.57
2019-05-03T05:55:10.202Z,10.37
2019-05-03T05:57:40.471Z,11.07
2019-05-03T06:00:10.737Z,11.43
2019-05-03T06:02:39.419Z,10.57
2019-05-03T06:05:08.114Z,9.70
2019-05-03T06:07:54.594Z,11.17
2019-05-03T06:10:30.885Z,11.13
2019-05-03T06:13:15.091Z,11.53
2019-05-03T06:16:01.863Z,13.87
2019-05-03T06:18:35.418Z,12.27
2019-05-03T06:21:14.884Z,13.93
2019-05-03T06:24:04.453Z,9.53
2019-05-03T06:26:40.553Z,7.67
2019-05-03T06:29:09.239Z,8.40
2019-05-03T06:31:40.468Z,11.70
2019-05-03T06:34:09.107Z,8.60
2019-05-03T06:36:38.454Z,10.23
2019-05-03T06:39:09.981Z,9.73
2019-05-03T06:41:38.614Z,7.73
2019-05-03T06:44:07.279Z,12.90
2019-05-03T06:46:46.519Z,9.20
2019-05-03T06:49:15.553Z,7.37
2019-05-03T06:51:45.628Z,10.73
2019-05-03T06:54:15.732Z,9.33
2019-05-03T06:56:45.178Z,10.00
2019-05-03T06:59:15.917Z,8.67
2019-05-03T07:01:52.488Z,10.47
2019-05-03T07:04:28.680Z,8.83
2019-05-03T07:07:02.234Z,9.63
2019-05-03T07:09:32.611Z,11.27
2019-05-03T07:12:01.274Z,8.83
2019-05-03T07:14:29.881Z,7.60
2019-05-03T07:16:58.549Z,8.00
2019-05-03T07:19:27.215Z,11.90
2019-05-03T07:21:56.008Z,8.03
2019-05-03T07:24:24.946Z,12.03
2019-05-03T07:26:55.127Z,9.97
2019-05-03T07:29:25.516Z,10.20
2019-05-03T07:31:54.941Z,11.27
2019-05-03T07:34:24.773Z,11.17
2019-05-03T07:36:55.425Z,13.53
2019-05-03T07:39:24.565Z,10.53
2019-05-03T07:41:55.075Z,12.97
2019-05-03T07:44:25.461Z,13.23
2019-05-03T07:46:55.492Z,12.77
2019-05-03T07:49:24.989Z,14.00
2019-05-03T07:51:55.338Z,13.37
2019-05-03T07:54:24.923Z,15.50
2019-05-03T07:56:55.405Z,13.10
2019-05-03T07:59:25.080Z,15.60
2019-05-03T08:01:55.463Z,14.43
2019-05-03T08:04:25.582Z,14.00
2019-05-03T08:06:54.926Z,18.20
2019-05-03T08:09:24.587Z,15.90
2019-05-03T08:11:54.738Z,23.20
2019-05-03T08:14:25.226Z,19.53
2019-05-03T08:16:54.822Z,22.77
2019-05-03T08:19:26.822Z,20.90
2019-05-03T08:21:56.431Z,21.60
2019-05-03T08:24:25.320Z,18.50
2019-05-03T08:26:55.795Z,19.97
2019-05-03T08:29:24.959Z,24.37
2019-05-03T08:31:58.430Z,20.57
2019-05-03T08:34:35.005Z,23.00
2019-05-03T08:37:05.536Z,19.10
2019-05-03T08:39:35.599Z,21.87
2019-05-03T08:42:12.446Z,22.63
2019-05-03T08:44:41.076Z,19.93
2019-05-03T08:47:09.764Z,20.43
2019-05-03T08:49:38.470Z,19.70
2019-05-03T08:52:07.066Z,18.10
2019-05-03T08:54:35.702Z,19.23
2019-05-03T08:57:06.283Z,18.00
2019-05-03T08:59:35.745Z,19.23
2019-05-03T09:02:13.985Z,17.27
2019-05-03T09:04:38.049Z,18.40
2019-05-03T09:07:06.212Z,17.83
2019-05-03T09:09:39.542Z,20.47
2019-05-03T09:12:08.296Z,18.90
2019-05-03T09:14:42.665Z,18.37
2019-05-03T09:17:07.384Z,19.13
2019-05-03T09:19:36.066Z,17.13
2019-05-03T09:22:06.215Z,17.67
2019-05-03T09:24:35.263Z,20.27
2019-05-03T09:27:05.150Z,18.50
2019-05-03T09:29:42.499Z,18.83
2019-05-03T09:32:05.199Z,19.63
2019-05-03T09:34:35.085Z,18.80
2019-05-03T09:37:04.838Z,17.43
2019-05-03T09:39:35.519Z,19.93
2019-05-03T09:42:04.710Z,19.90
2019-05-03T09:44:34.988Z,19.77
2019-05-03T09:47:05.653Z,19.63
2019-05-03T09:49:34.727Z,18.47
2019-05-03T09:52:07.921Z,23.17
2019-05-03T09:54:35.797Z,18.30
2019-05-03T09:57:05.817Z,17.13
2019-05-03T09:59:35.057Z,18.53
2019-05-03T10:02:04.897Z,22.77
2019-05-03T10:04:36.397Z,21.10
2019-05-03T10:07:04.213Z,17.70
2019-05-03T10:09:35.169Z,19.13
2019-05-03T10:12:05.469Z,21.20
2019-05-03T10:14:34.399Z,20.13
2019-05-03T10:17:07.229Z,16.53
2019-05-03T10:19:40.111Z,21.13
2019-05-03T10:22:07.040Z,20.87
2019-05-03T10:24:35.679Z,17.53
2019-05-03T10:27:05.583Z,18.40
2019-05-03T10:29:34.487Z,18.53
2019-05-03T10:32:04.763Z,13.90
2019-05-03T10:34:35.302Z,17.30
2019-05-03T10:37:05.191Z,15.30
2019-05-03T10:39:36.088Z,16.53
2019-05-03T10:42:04.855Z,15.30
2019-05-03T10:44:35.705Z,15.10
2019-05-03T10:47:05.485Z,15.97
2019-05-03T10:49:35.190Z,14.83
2019-05-03T10:52:05.866Z,15.27
2019-05-03T10:54:35.811Z,14.13
2019-05-03T10:57:06.467Z,16.17
2019-05-03T10:59:35.661Z,14.90
2019-05-03T11:02:08.925Z,14.90
2019-05-03T11:04:41.993Z,15.57
2019-05-03T11:07:10.653Z,15.07
2019-05-03T11:09:48.617Z,13.53
2019-05-03T11:12:09.612Z,14.80
2019-05-03T11:14:38.244Z,14.47
2019-05-03T11:17:06.925Z,14.80
2019-05-03T11:19:35.711Z,19.53
2019-05-03T11:22:05.457Z,14.03
2019-05-03T11:24:35.022Z,14.83
2019-05-03T11:27:05.395Z,13.23
2019-05-03T11:29:35.537Z,12.67
2019-05-03T11:32:10.707Z,13.20
2019-05-03T11:34:56.212Z,13.23
2019-05-03T11:37:29.470Z,13.67
2019-05-03T11:39:58.147Z,14.00
2019-05-03T11:42:26.867Z,16.40
2019-05-03T11:44:55.474Z,13.17
2019-05-03T11:47:25.606Z,13.93
2019-05-03T11:49:54.769Z,14.37
2019-05-03T11:52:25.697Z,15.13
2019-05-03T11:54:55.254Z,15.17
2019-05-03T11:57:27.912Z,13.03
2019-05-03T11:59:56.663Z,16.63
2019-05-03T12:02:26.923Z,13.67
2019-05-03T12:04:55.654Z,12.03
2019-05-03T12:07:39.875Z,15.20
2019-05-03T12:10:17.662Z,13.10
2019-05-03T12:12:40.913Z,14.87
2019-05-03T12:15:10.145Z,13.50
2019-05-03T12:17:50.932Z,14.07
2019-05-03T12:20:12.522Z,13.77
2019-05-03T12:22:41.922Z,13.67
2019-05-03T12:25:12.011Z,13.57
2019-05-03T12:27:41.141Z,15.13
2019-05-03T12:30:10.018Z,13.93
2019-05-03T12:32:38.744Z,15.20
2019-05-03T12:35:07.510Z,15.23
2019-05-03T12:37:36.118Z,11.77
2019-05-03T12:40:06.399Z,13.17
2019-05-03T12:42:35.611Z,13.77
2019-05-03T12:45:06.522Z,11.63
2019-05-03T12:47:35.228Z,13.47
2019-05-03T12:50:05.966Z,12.93
2019-05-03T12:52:35.460Z,12.07
2019-05-03T12:55:08.295Z,13.53
2019-05-03T12:57:36.918Z,16.93
2019-05-03T13:00:09.731Z,14.33
2019-05-03T13:02:39.976Z,14.20
2019-05-03T13:05:08.688Z,14.63
2019-05-03T13:07:38.930Z,13.10
2019-05-03T13:10:07.967Z,13.50
2019-05-03T13:12:49.839Z,14.33
2019-05-03T13:15:08.048Z,14.40
2019-05-03T13:17:37.268Z,15.03
2019-05-03T13:20:08.703Z,14.33
2019-05-03T13:22:37.485Z,14.17
2019-05-03T13:25:07.842Z,17.37
2019-05-03T13:27:36.552Z,13.93
2019-05-03T13:30:09.536Z,13.90
2019-05-03T13:32:38.263Z,14.10
2019-05-03T13:35:08.229Z,18.30
2019-05-03T13:37:36.942Z,12.60
2019-05-03T13:40:07.018Z,17.03
2019-05-03T13:42:35.692Z,13.57
2019-05-03T13:45:08.779Z,15.80
2019-05-03T13:47:37.388Z,14.00
2019-05-03T13:50:09.051Z,12.63
2019-05-03T13:52:37.642Z,14.33
2019-05-03T13:55:07.086Z,12.07
2019-05-03T13:57:35.695Z,12.43
2019-05-03T14:00:07.236Z,12.73
2019-05-03T14:02:36.089Z,10.93
2019-05-03T14:05:06.591Z,12.03
2019-05-03T14:07:35.493Z,13.17
2019-05-03T14:10:06.358Z,17.60
2019-05-03T14:12:35.212Z,13.73
2019-05-03T14:15:05.827Z,13.50
2019-05-03T14:17:34.463Z,14.93
2019-05-03T14:20:26.093Z,12.67
2019-05-03T14:22:54.747Z,10.40
2019-05-03T14:25:24.715Z,10.27
2019-05-03T14:27:54.948Z,10.67
2019-05-03T14:30:25.323Z,10.53
2019-05-03T14:32:55.737Z,13.67
2019-05-03T14:35:25.059Z,14.60
2019-05-03T14:37:55.128Z,10.40
2019-05-03T14:40:25.148Z,9.83
2019-05-03T14:42:55.494Z,7.23
2019-05-03T14:45:25.594Z,9.43
2019-05-03T14:47:54.724Z,8.73
2019-05-03T14:50:25.490Z,8.83
2019-05-03T14:52:56.856Z,9.07
2019-05-03T14:55:45.127Z,10.80
2019-05-03T14:58:17.298Z,11.30
2019-05-03T15:00:46.987Z,10.17
2019-05-03T15:03:17.275Z,8.90
2019-05-03T15:05:45.940Z,8.80
2019-05-03T15:08:15.015Z,8.60
2019-05-03T15:10:45.598Z,9.47
2019-05-03T15:13:15.896Z,10.07
2019-05-03T15:15:45.137Z,10.93
2019-05-03T15:18:14.910Z,8.77
2019-05-03T15:20:45.325Z,7.93
2019-05-03T15:23:14.762Z,10.63
2019-05-03T15:25:45.226Z,9.30
2019-05-03T15:28:14.040Z,7.40
2019-05-03T15:30:44.514Z,8.07
2019-05-03T15:33:15.018Z,9.67
2019-05-03T15:35:46.429Z,9.87
2019-05-03T15:38:14.476Z,8.57
2019-05-03T15:40:43.499Z,7.57
2019-05-03T15:43:14.890Z,9.93
2019-05-03T15:45:51.063Z,8.53
2019-05-03T15:48:21.331Z,8.37
2019-05-03T15:50:50.077Z,6.87
2019-05-03T15:53:18.669Z,9.83
2019-05-03T15:55:47.378Z,10.13
2019-05-03T15:58:16.094Z,9.27
2019-05-03T16:00:44.940Z,9.07
2019-05-03T16:03:14.544Z,7.97
2019-05-03T16:05:44.732Z,8.67
2019-05-03T16:08:15.290Z,9.10
2019-05-03T16:10:45.737Z,10.20
2019-05-03T16:13:14.519Z,9.73
2019-05-03T16:15:44.543Z,8.50
2019-05-03T16:18:14.860Z,8.20
2019-05-03T16:20:45.064Z,10.70
2019-05-03T16:23:15.398Z,9.53
2019-05-03T16:25:44.846Z,10.87
2019-05-03T16:28:15.327Z,7.93
2019-05-03T16:30:48.423Z,8.57
2019-05-03T16:33:26.997Z,8.77
2019-05-03T16:35:47.517Z,10.83
2019-05-03T16:38:16.188Z,12.47
2019-05-03T16:40:45.230Z,8.53
2019-05-03T16:43:15.998Z,10.53
2019-05-03T16:45:44.593Z,10.13
2019-05-03T16:48:15.026Z,10.37
2019-05-03T16:50:45.210Z,10.30
2019-05-03T16:53:14.805Z,9.53
2019-05-03T16:55:44.377Z,8.87
2019-05-03T16:58:16.475Z,10.33
2019-05-03T17:00:44.796Z,10.87
2019-05-03T17:03:17.242Z,8.77
2019-05-03T17:05:56.372Z,9.10
2019-05-03T17:08:29.373Z,10.73
2019-05-03T17:10:59.649Z,9.67
2019-05-03T17:13:28.340Z,10.67
2019-05-03T17:15:57.128Z,9.23
2019-05-03T17:18:25.808Z,12.07
2019-05-03T17:20:54.843Z,10.33
2019-05-03T17:23:24.603Z,10.93
2019-05-03T17:25:54.741Z,9.60
2019-05-03T17:28:24.777Z,10.23
2019-05-03T17:30:55.216Z,10.23
2019-05-03T17:33:25.297Z,10.17
2019-05-03T17:35:54.440Z,12.70
2019-05-03T17:38:23.835Z,11.37
2019-05-03T17:41:10.319Z,12.63
2019-05-03T17:43:46.450Z,10.33
2019-05-03T17:46:15.090Z,13.47
2019-05-03T17:48:45.235Z,13.67
2019-05-03T17:51:15.630Z,13.50
2019-05-03T17:53:58.045Z,11.50
2019-05-03T17:56:28.363Z,11.83
2019-05-03T17:59:01.566Z,11.67
2019-05-03T18:01:48.332Z,14.90
2019-05-03T18:04:21.617Z,14.77
2019-05-03T18:07:04.597Z,13.57
2019-05-03T18:09:35.030Z,16.90
2019-05-03T18:12:05.346Z,12.60
2019-05-03T18:14:34.467Z,14.17
2019-05-03T18:17:05.493Z,14.70
2019-05-03T18:19:34.318Z,16.10
2019-05-03T18:22:05.066Z,13.07
2019-05-03T18:24:35.200Z,13.60
2019-05-03T18:27:04.577Z,11.13
2019-05-03T18:29:34.643Z,12.33
2019-05-03T18:32:05.348Z,14.10
2019-05-03T18:34:33.928Z,12.23
2019-05-03T18:37:04.639Z,12.30
2019-05-03T18:39:34.720Z,12.90
2019-05-03T18:42:04.991Z,10.57
2019-05-03T18:44:35.312Z,14.20
2019-05-03T18:47:05.614Z,13.90
2019-05-03T18:49:35.362Z,13.00
2019-05-03T18:52:04.453Z,13.87
2019-05-03T18:54:34.960Z,13.93
2019-05-03T18:57:05.101Z,14.87
2019-05-03T18:59:33.946Z,14.70
2019-05-03T19:02:02.668Z,15.90
2019-05-03T19:04:35.820Z,15.57
2019-05-03T19:07:06.659Z,17.63
2019-05-03T19:09:35.375Z,13.13
2019-05-03T19:12:08.760Z,16.80
2019-05-03T19:14:37.350Z,16.30
2019-05-03T19:17:19.684Z,11.97
2019-05-03T19:19:49.956Z,14.03
2019-05-03T19:22:18.631Z,17.07
2019-05-03T19:24:47.316Z,13.13
2019-05-03T19:27:16.020Z,14.40
2019-05-03T19:29:44.926Z,13.00
2019-05-03T19:32:14.972Z,12.77
2019-05-03T19:34:48.378Z,12.97
2019-05-03T19:37:14.502Z,14.53
2019-05-03T19:39:43.327Z,13.27
2019-05-03T19:42:12.034Z,13.77
2019-05-03T19:44:40.703Z,16.60
2019-05-03T19:47:09.457Z,16.80
2019-05-03T19:49:38.067Z,15.50
2019-05-03T19:52:06.785Z,13.03
2019-05-03T19:54:36.568Z,14.23
2019-05-03T19:57:05.518Z,16.43
2019-05-03T19:59:56.320Z,15.30
2019-05-03T20:02:41.127Z,17.60
2019-05-03T20:05:25.215Z,19.27
2019-05-03T20:08:05.155Z,16.23
2019-05-03T20:10:35.098Z,14.90
2019-05-03T20:13:04.662Z,15.87
2019-05-03T20:15:33.464Z,16.93
2019-05-03T20:18:02.162Z,17.77
2019-05-03T20:20:30.785Z,16.77
2019-05-03T20:22:59.504Z,17.23
2019-05-03T20:25:28.174Z,17.23
2019-05-03T20:27:56.888Z,15.83
2019-05-03T20:30:25.582Z,18.87
2019-05-03T20:32:55.548Z,18.37
2019-05-03T20:35:25.138Z,19.43
2019-05-03T20:37:55.370Z,19.97
2019-05-03T20:40:25.655Z,19.97
2019-05-03T20:43:11.100Z,18.83
2019-05-03T20:45:44.610Z,18.77
2019-05-03T20:48:14.991Z,18.43
2019-05-03T20:50:44.703Z,20.07
2019-05-03T20:53:13.589Z,19.70
2019-05-03T20:55:42.349Z,20.23
2019-05-03T20:58:11.472Z,19.30
2019-05-03T21:00:40.219Z,21.17
2019-05-03T21:03:08.875Z,19.23
2019-05-03T21:05:37.645Z,19.33
2019-05-03T21:08:06.358Z,20.13
2019-05-03T21:10:34.965Z,20.90
2019-05-03T21:13:05.374Z,25.10
2019-05-03T21:15:44.582Z,23.67
2019-05-03T21:18:15.198Z,21.93
2019-05-03T21:20:45.668Z,21.90
2019-05-03T21:23:15.910Z,24.83
2019-05-03T21:26:12.319Z,22.80
2019-05-03T21:28:34.631Z,26.73
2019-05-03T21:31:05.396Z,23.53
2019-05-03T21:33:35.482Z,21.60
2019-05-03T21:36:04.732Z,22.93
2019-05-03T21:38:35.559Z,27.23
2019-05-03T21:41:05.209Z,25.93
2019-05-03T21:43:34.830Z,26.17
2019-05-03T21:46:08.881Z,23.17
2019-05-03T21:48:55.794Z,25.23
2019-05-03T21:51:24.624Z,23.97
2019-05-03T21:53:53.329Z,24.10
2019-05-03T21:56:21.990Z,26.40
2019-05-03T21:58:50.662Z,25.53
2019-05-03T22:01:19.454Z,27.07
2019-05-03T22:03:48.232Z,25.23
2019-05-03T22:06:17.183Z,26.23
2019-05-03T22:08:46.042Z,26.33
2019-05-03T22:11:14.965Z,27.93
2019-05-03T22:13:45.481Z,28.23
2019-05-03T22:16:15.955Z,24.43
2019-05-03T22:18:45.470Z,25.53
2019-05-03T22:21:25.067Z,27.10
2019-05-03T22:24:14.761Z,26.63
2019-05-03T22:27:00.635Z,24.30
2019-05-03T22:29:29.315Z,24.50
2019-05-03T22:31:58.099Z,27.43
2019-05-03T22:34:26.852Z,27.20
2019-05-03T22:36:55.622Z,25.90
2019-05-03T22:39:25.017Z,25.33
2019-05-03T22:41:53.965Z,29.63
2019-05-03T22:44:22.650Z,30.93
2019-05-03T22:46:51.368Z,26.00
2019-05-03T22:49:20.042Z,26.87
2019-05-03T22:51:48.849Z,28.80
2019-05-03T22:54:17.585Z,29.37
2019-05-03T22:56:46.285Z,27.73
2019-05-03T22:59:15.111Z,27.87
2019-05-03T23:01:45.547Z,26.77
2019-05-03T23:04:14.655Z,27.60
2019-05-03T23:06:46.771Z,28.93
2019-05-03T23:09:15.878Z,29.40
2019-05-03T23:11:44.944Z,26.83
2019-05-03T23:14:15.069Z,28.13
2019-05-03T23:16:44.918Z,25.57
2019-05-03T23:19:14.975Z,28.03
2019-05-03T23:21:45.565Z,27.80
2019-05-03T23:24:15.384Z,24.83
2019-05-03T23:26:45.209Z,26.57
2019-05-03T23:29:14.075Z,26.97
2019-05-03T23:31:44.707Z,25.83
2019-05-03T23:34:13.110Z,26.13
2019-05-03T23:36:41.840Z,26.63
2019-05-03T23:39:10.586Z,27.00
2019-05-03T23:41:39.277Z,28.90
2019-05-03T23:44:07.960Z,28.43
2019-05-03T23:46:40.934Z,27.37
2019-05-03T23:49:09.578Z,32.10
2019-05-03T23:51:51.812Z,30.90
2019-05-03T23:54:20.487Z,27.73
2019-05-03T23:56:49.290Z,26.60
2019-05-03T23:59:17.899Z,27.97
